Time;durP1;ratioP1;P1;durP2;ratioP2;P2;SDS_P1;SDS_P2;PMS_P1;PMS_P2;Temp;Humidity;BMP_temperature;BMP_pressure;BME280_temperature;BME280_humidity;BME280_pressure;Samples;Min_cycle;Max_cycle;Signal;HPM_P1;HPM_P2
2023/07/27 00:02:33;;;;;;;0.60;0.50;;;;;;;19.22;100.00;100068.88;5071948;28;20032;-76
2023/07/27 00:05:18;;;;;;;0.50;0.32;;;;;;;19.22;100.00;100066.06;5060364;28;20068;-75
2023/07/27 00:08:04;;;;;;;0.80;0.50;;;;;;;19.17;100.00;100066.34;5085857;28;20039;-75
2023/07/27 00:10:50;;;;;;;0.73;0.40;;;;;;;19.11;100.00;100062.16;5071173;28;20118;-76
2023/07/27 00:13:36;;;;;;;0.80;0.30;;;;;;;19.10;100.00;100066.97;5039357;28;20048;-76
2023/07/27 00:16:21;;;;;;;1.85;0.30;;;;;;;19.02;100.00;100070.78;5036891;28;20037;-75
2023/07/27 00:19:07;;;;;;;0.95;0.30;;;;;;;18.97;100.00;100057.81;5073096;28;20058;-75
2023/07/27 00:21:53;;;;;;;1.75;0.32;;;;;;;19.00;100.00;100063.88;5075147;28;20441;-76
2023/07/27 00:24:39;;;;;;;0.98;0.30;;;;;;;18.98;100.00;100059.44;5047685;28;20024;-76
2023/07/27 00:27:24;;;;;;;0.57;0.30;;;;;;;18.96;100.00;100058.16;5052866;28;20097;-75
2023/07/27 00:30:12;;;;;;;2.60;0.40;;;;;;;18.88;100.00;100051.50;5051359;28;20116;-75
2023/07/27 00:32:58;;;;;;;1.27;0.50;;;;;;;18.89;100.00;100052.34;5053553;28;20039;-75
2023/07/27 00:35:43;;;;;;;1.23;0.40;;;;;;;18.86;100.00;100048.25;5040589;28;20032;-75
2023/07/27 00:38:29;;;;;;;1.10;0.50;;;;;;;18.85;100.00;100051.44;5037325;28;20036;-76
2023/07/27 00:41:15;;;;;;;0.95;0.50;;;;;;;18.83;100.00;100054.59;5052694;28;20099;-75
2023/07/27 00:44:01;;;;;;;1.00;0.50;;;;;;;18.75;100.00;100055.59;5056779;28;20034;-75
2023/07/27 00:46:47;;;;;;;3.42;0.90;;;;;;;18.71;100.00;100047.00;5069479;28;20036;-75
2023/07/27 00:49:32;;;;;;;1.50;0.90;;;;;;;18.68;100.00;100056.16;5051429;28;20041;-75
2023/07/27 00:52:18;;;;;;;1.27;0.70;;;;;;;18.66;100.00;100043.66;5017858;28;20041;-75
2023/07/27 00:55:04;;;;;;;3.25;1.15;;;;;;;18.59;100.00;100047.09;5027896;28;20036;-76
2023/07/27 00:57:50;;;;;;;2.17;1.08;;;;;;;18.59;100.00;100054.72;5050587;28;20033;-75
2023/07/27 01:00:36;;;;;;;2.15;1.10;;;;;;;18.53;100.00;100052.16;5075051;28;20039;-75
2023/07/27 01:03:21;;;;;;;2.60;1.10;;;;;;;18.48;100.00;100043.97;5030433;28;20028;-75
2023/07/27 01:06:08;;;;;;;2.50;1.35;;;;;;;18.46;100.00;100045.50;5052116;28;20033;-75
2023/07/27 01:08:54;;;;;;;3.92;1.35;;;;;;;18.44;100.00;100051.50;5051474;28;20327;-75
2023/07/27 01:11:59;;;;;;;3.00;1.50;;;;;;;18.34;100.00;100040.75;5044213;28;20032;-75
2023/07/27 01:15:03;;;;;;;3.35;1.67;;;;;;;18.30;100.00;100042.63;5091784;28;20040;-75
2023/07/27 01:17:55;;;;;;;2.67;1.55;;;;;;;18.30;100.00;100040.66;5088915;28;20506;-75
2023/07/27 01:20:55;;;;;;;5.88;1.85;;;;;;;18.30;100.00;100042.63;5089392;28;20024;-75
2023/07/27 01:23:59;;;;;;;3.30;1.80;;;;;;;18.25;100.00;100037.31;5087227;28;20028;-75
2023/07/27 01:27:10;;;;;;;3.47;1.73;;;;;;;18.25;100.00;100040.09;5085518;28;20107;-75
2023/07/27 01:30:31;;;;;;;5.90;2.15;;;;;;;18.21;100.00;100030.75;5075240;28;20028;-75
2023/07/27 01:33:22;;;;;;;4.75;2.28;;;;;;;18.13;100.00;100026.91;5100033;28;20502;-75
2023/07/27 01:36:17;;;;;;;5.40;2.30;;;;;;;18.11;100.00;100023.66;5053304;28;20491;-75
2023/07/27 01:39:04;;;;;;;6.28;2.63;;;;;;;18.07;100.00;100029.13;5075921;28;20027;-75
2023/07/27 01:41:50;;;;;;;5.75;2.38;;;;;;;18.04;100.00;100024.25;5069801;28;20037;-75
2023/07/27 01:44:35;;;;;;;6.00;2.42;;;;;;;18.03;100.00;100014.19;5057697;28;20033;-75
2023/07/27 01:47:21;;;;;;;4.25;2.35;;;;;;;18.01;100.00;100015.72;5078065;28;20092;-75
2023/07/27 01:50:07;;;;;;;5.93;2.13;;;;;;;17.99;100.00;100018.06;5056591;28;20024;-75
2023/07/27 01:52:53;;;;;;;6.20;2.30;;;;;;;17.99;100.00;100010.44;5082337;28;20169;-75
2023/07/27 01:55:39;;;;;;;4.38;2.03;;;;;;;17.96;100.00;100005.53;5066781;28;20070;-75
2023/07/27 01:58:26;;;;;;;3.95;2.28;;;;;;;17.97;100.00;100004.38;5059345;28;20035;-75
2023/07/27 02:01:12;;;;;;;5.05;2.30;;;;;;;17.92;100.00;100009.44;5070770;28;20063;-75
2023/07/27 02:03:57;;;;;;;4.90;2.63;;;;;;;17.92;100.00;100003.81;5057733;28;20028;-75
2023/07/27 02:06:45;;;;;;;6.78;2.42;;;;;;;17.88;100.00;100009.31;5048978;28;20043;-75
2023/07/27 02:09:31;;;;;;;5.28;2.42;;;;;;;17.84;100.00;100003.59;5041867;28;20039;-76
2023/07/27 02:12:24;;;;;;;5.63;2.80;;;;;;;17.87;100.00;100004.88;5087846;28;20028;-75
2023/07/27 02:15:15;;;;;;;4.65;2.20;;;;;;;17.82;100.00;100005.13;5079463;28;20114;-75
2023/07/27 02:18:06;;;;;;;6.20;2.03;;;;;;;17.82;100.00;99988.25;5068385;28;20106;-75
2023/07/27 02:20:52;;;;;;;5.07;2.03;;;;;;;17.80;100.00;99994.25;5065233;28;20047;-75
2023/07/27 02:23:38;;;;;;;5.13;2.13;;;;;;;17.79;100.00;99991.78;5049603;28;20036;-75
2023/07/27 02:26:24;;;;;;;4.47;2.28;;;;;;;17.79;100.00;99986.97;5051407;28;20441;-75
2023/07/27 02:29:09;;;;;;;5.00;2.40;;;;;;;17.78;100.00;99992.94;5050408;28;20060;-75
2023/07/27 02:31:55;;;;;;;4.50;2.40;;;;;;;17.77;100.00;99985.66;5068302;28;20044;-75
2023/07/27 02:34:41;;;;;;;5.18;2.35;;;;;;;17.75;100.00;99988.84;5061980;28;20024;-75
2023/07/27 02:37:27;;;;;;;4.80;2.30;;;;;;;17.73;100.00;99979.13;5053280;28;20032;-75
2023/07/27 02:40:12;;;;;;;3.92;2.22;;;;;;;17.73;100.00;99984.75;5064751;28;20115;-75
2023/07/27 02:42:58;;;;;;;3.60;2.33;;;;;;;17.74;100.00;99975.13;5061083;28;20040;-75
2023/07/27 02:45:44;;;;;;;4.78;2.35;;;;;;;17.69;100.00;99973.41;5070909;28;20040;-75
2023/07/27 02:48:30;;;;;;;4.47;2.10;;;;;;;17.71;100.00;99970.25;5064886;28;20032;-75
2023/07/27 02:51:16;;;;;;;5.55;2.42;;;;;;;17.71;100.00;99970.25;5067796;28;20484;-75
2023/07/27 02:54:01;;;;;;;3.03;2.17;;;;;;;17.72;100.00;99971.88;5052420;28;20036;-75
2023/07/27 02:56:48;;;;;;;4.75;1.80;;;;;;;17.69;100.00;99966.97;5052424;28;20032;-75
2023/07/27 02:59:34;;;;;;;5.88;2.38;;;;;;;17.68;100.00;99970.94;5083459;28;20038;-75
2023/07/27 03:02:19;;;;;;;5.18;2.20;;;;;;;17.61;100.00;99963.94;5088062;28;20406;-75
2023/07/27 03:05:05;;;;;;;6.18;2.25;;;;;;;17.64;100.00;99965.25;5050552;28;20119;-75
2023/07/27 03:07:51;;;;;;;4.22;2.10;;;;;;;17.62;100.00;99959.97;5051207;28;20043;-75
2023/07/27 03:10:38;;;;;;;4.78;2.08;;;;;;;17.61;100.00;99955.53;5055892;28;20028;-75
2023/07/27 03:13:23;;;;;;;5.25;2.13;;;;;;;17.59;100.00;99946.63;5061334;28;20408;-75
2023/07/27 03:16:09;;;;;;;4.20;2.25;;;;;;;17.57;100.00;99946.16;5062611;28;20050;-75
2023/07/27 03:18:55;;;;;;;5.65;2.20;;;;;;;17.59;100.00;99943.00;5075716;28;20032;-75
2023/07/27 03:21:41;;;;;;;3.83;2.03;;;;;;;17.53;100.00;99939.63;5050784;28;20032;-75
2023/07/27 03:24:27;;;;;;;3.00;1.80;;;;;;;17.54;100.00;99946.06;5054292;28;20039;-75
2023/07/27 03:27:13;;;;;;;5.35;1.90;;;;;;;17.52;100.00;99940.78;5050456;28;20060;-75
2023/07/27 03:29:59;;;;;;;3.60;1.85;;;;;;;17.55;100.00;99942.91;5083533;28;20119;-75
2023/07/27 03:32:44;;;;;;;3.72;1.98;;;;;;;17.55;100.00;99944.88;5078565;28;20032;-75
2023/07/27 03:35:31;;;;;;;5.82;1.95;;;;;;;17.49;100.00;99935.88;5068348;28;20046;-75
2023/07/27 03:38:16;;;;;;;4.15;2.00;;;;;;;17.51;100.00;99941.16;5098782;28;20078;-75
2023/07/27 03:41:02;;;;;;;4.85;2.30;;;;;;;17.45;100.00;99940.59;5039616;28;20108;-75
2023/07/27 03:43:48;;;;;;;5.95;2.40;;;;;;;17.47;100.00;99943.88;5068849;28;20032;-75
2023/07/27 03:46:34;;;;;;;4.45;2.13;;;;;;;17.46;100.00;99935.78;5065735;28;20132;-75
2023/07/27 03:49:19;;;;;;;5.32;2.45;;;;;;;17.43;100.00;99931.69;5066282;28;20511;-75
2023/07/27 03:52:05;;;;;;;6.85;2.40;;;;;;;17.41;100.00;99934.88;5051812;28;20462;-75
2023/07/27 03:54:51;;;;;;;4.97;2.40;;;;;;;17.42;100.00;99935.69;5069700;28;20032;-75
2023/07/27 03:57:37;;;;;;;5.03;2.40;;;;;;;17.38;100.00;99927.16;5063861;28;20033;-75
2023/07/27 04:00:23;;;;;;;4.35;2.25;;;;;;;17.39;100.00;99934.41;5052735;28;20024;-75
2023/07/27 04:03:08;;;;;;;4.93;2.13;;;;;;;17.38;100.00;99934.75;5074387;28;20031;-75
2023/07/27 04:05:54;;;;;;;3.03;1.98;;;;;;;17.38;100.00;99935.59;5092600;28;20040;-75
2023/07/27 04:08:40;;;;;;;5.57;2.20;;;;;;;17.42;100.00;99939.31;5075164;28;20378;-75
2023/07/27 04:11:26;;;;;;;3.92;2.15;;;;;;;17.38;100.00;99931.94;5057651;28;20059;-75
2023/07/27 04:14:12;;;;;;;4.55;2.10;;;;;;;17.37;100.00;99927.50;5087042;28;20051;-75
2023/07/27 04:16:57;;;;;;;3.50;2.38;;;;;;;17.37;100.00;99927.50;5062883;28;20089;-75
2023/07/27 04:19:43;;;;;;;5.13;2.28;;;;;;;17.38;100.00;99926.31;5064933;28;20035;-75
2023/07/27 04:22:29;;;;;;;4.65;2.42;;;;;;;17.37;100.00;99922.72;5080901;28;20020;-75
2023/07/27 04:25:15;;;;;;;5.07;2.60;;;;;;;17.38;100.00;99929.97;5045958;28;20119;-75
2023/07/27 04:28:00;;;;;;;4.10;2.40;;;;;;;17.40;100.00;99924.81;5052290;28;20436;-75
2023/07/27 04:30:46;;;;;;;5.15;2.78;;;;;;;17.37;100.00;99927.50;5086713;28;20031;-75
2023/07/27 04:33:32;;;;;;;8.80;2.95;;;;;;;17.32;100.00;99922.13;5072117;28;20057;-75
2023/07/27 04:36:18;;;;;;;3.55;2.45;;;;;;;17.36;100.00;99925.88;5094420;28;20024;-75
2023/07/27 04:39:04;;;;;;;5.05;2.67;;;;;;;17.31;100.00;99918.53;5055761;28;20114;-75
2023/07/27 04:41:50;;;;;;;5.25;2.70;;;;;;;17.33;100.00;99909.75;5053259;28;20420;-75
2023/07/27 04:44:35;;;;;;;4.30;2.75;;;;;;;17.30;100.00;99910.44;5050741;28;20036;-75
2023/07/27 04:47:21;;;;;;;4.15;2.42;;;;;;;17.29;100.00;99900.41;5052373;28;20037;-75
2023/07/27 04:50:07;;;;;;;6.32;2.97;;;;;;;17.25;100.00;99914.31;5066254;28;20086;-75
2023/07/27 04:52:53;;;;;;;6.28;3.20;;;;;;;17.24;100.00;99915.47;5063426;28;20039;-75
2023/07/27 04:55:39;;;;;;;6.40;2.60;;;;;;;17.26;100.00;99909.53;5052886;28;20067;-75
2023/07/27 04:58:24;;;;;;;5.03;2.83;;;;;;;17.27;100.00;99909.16;5069383;28;20040;-75
2023/07/27 05:01:10;;;;;;;6.65;2.47;;;;;;;17.23;100.00;99904.63;5097802;28;20028;-75
2023/07/27 05:03:56;;;;;;;5.93;2.90;;;;;;;17.21;100.00;99902.16;5064294;28;20415;-75
2023/07/27 05:06:42;;;;;;;5.68;2.80;;;;;;;17.15;100.00;99915.59;5058618;28;20046;-75
2023/07/27 05:09:28;;;;;;;5.90;2.65;;;;;;;17.16;100.00;99905.19;5084178;28;20044;-75
2023/07/27 05:12:14;;;;;;;5.13;2.55;;;;;;;17.17;100.00;99918.91;5070267;28;20039;-75
2023/07/27 05:14:59;;;;;;;4.80;2.67;;;;;;;17.19;100.00;99919.38;5039203;28;20115;-75
2023/07/27 05:17:45;;;;;;;5.10;2.92;;;;;;;17.19;100.00;99927.78;5052543;28;20034;-75
2023/07/27 05:20:32;;;;;;;4.60;2.58;;;;;;;17.15;100.00;99918.41;5095910;28;20104;-75
2023/07/27 05:23:18;;;;;;;3.28;2.22;;;;;;;17.16;100.00;99928.50;5040474;28;20142;-75
2023/07/27 05:26:05;;;;;;;5.70;2.60;;;;;;;17.23;100.00;99932.69;5088983;28;20142;-75
2023/07/27 05:28:51;;;;;;;5.70;2.72;;;;;;;17.26;100.00;99931.97;5069973;28;20043;-75
2023/07/27 05:31:36;;;;;;;7.38;3.05;;;;;;;17.19;100.00;99927.78;5049491;28;20076;-75
2023/07/27 05:34:22;;;;;;;6.85;2.85;;;;;;;17.19;100.00;99936.19;5052316;28;20090;-75
2023/07/27 05:37:08;;;;;;;4.80;2.53;;;;;;;17.20;100.00;99935.03;5064238;28;20039;-75
2023/07/27 05:39:54;;;;;;;5.45;2.92;;;;;;;17.20;100.00;99934.19;5063457;28;20032;-75
2023/07/27 05:42:40;;;;;;;7.35;2.95;;;;;;;17.25;100.00;99941.56;5037531;28;20416;-75
2023/07/27 05:45:26;;;;;;;5.47;3.00;;;;;;;17.27;100.00;99930.78;5068303;28;20032;-75
2023/07/27 05:48:12;;;;;;;8.05;2.67;;;;;;;17.24;100.00;99935.13;5082880;28;20038;-75
2023/07/27 05:50:57;;;;;;;7.35;3.53;;;;;;;17.25;100.00;99930.34;5050227;28;20072;-75
2023/07/27 05:53:44;;;;;;;4.30;2.75;;;;;;;17.26;100.00;99921.56;5071795;28;20101;-75
2023/07/27 05:56:30;;;;;;;5.18;3.13;;;;;;;17.27;100.00;99934.41;5095347;28;20028;-75
2023/07/27 05:59:16;;;;;;;6.95;2.85;;;;;;;17.32;100.00;99925.75;5061597;28;20043;-75
2023/07/27 06:02:02;;;;;;;5.93;3.15;;;;;;;17.35;100.00;99924.22;5052398;28;20033;-75
2023/07/27 06:04:48;;;;;;;5.65;3.22;;;;;;;17.35;100.00;99919.44;5086091;28;20023;-75
2023/07/27 06:07:34;;;;;;;6.30;3.17;;;;;;;17.36;100.00;99917.47;5069033;28;20048;-75
2023/07/27 06:10:19;;;;;;;7.53;3.10;;;;;;;17.40;100.00;99921.19;5062422;28;20043;-75
2023/07/27 06:13:06;;;;;;;4.90;3.03;;;;;;;17.40;100.00;99924.81;5040124;28;20339;-75
2023/07/27 06:15:51;;;;;;;6.45;3.15;;;;;;;17.44;100.00;99913.72;5031681;28;20128;-75
2023/07/27 06:18:37;;;;;;;6.63;3.28;;;;;;;17.47;100.00;99920.56;5019746;28;20493;-75
2023/07/27 06:21:23;;;;;;;4.43;3.08;;;;;;;17.49;100.00;99916.25;5029358;28;20033;-75
2023/07/27 06:24:09;;;;;;;8.73;3.42;;;;;;;17.51;100.00;99921.50;5042370;28;20067;-75
2023/07/27 06:26:55;;;;;;;6.93;3.67;;;;;;;17.55;100.00;99914.00;5030475;28;20032;-75
2023/07/27 06:29:41;;;;;;;5.90;3.60;;;;;;;17.56;100.00;99916.47;5066607;28;20089;-75
2023/07/27 06:32:26;;;;;;;6.80;3.53;;;;;;;17.58;100.00;99918.94;5031065;28;20037;-75
2023/07/27 06:35:12;;;;;;;5.95;3.30;;;;;;;17.59;100.00;99918.56;5037872;28;20086;-75
2023/07/27 06:37:58;;;;;;;6.32;3.42;;;;;;;17.61;100.00;99919.03;5025432;28;20092;-75
2023/07/27 06:40:44;;;;;;;4.63;3.40;;;;;;;17.66;100.00;99917.94;5036432;28;20032;-75
2023/07/27 06:43:30;;;;;;;6.15;3.45;;;;;;;17.69;100.00;99910.78;5020199;28;20040;-75
2023/07/27 06:46:18;;;;;;;6.75;3.17;;;;;;;17.71;100.00;99909.28;5022591;28;20048;-75
2023/07/27 06:49:04;;;;;;;5.22;2.80;;;;;;;17.75;100.00;99903.78;5042908;28;20041;-75
2023/07/27 06:51:49;;;;;;;5.30;2.97;;;;;;;17.78;100.00;99911.50;5045858;28;20040;-75
2023/07/27 06:54:36;;;;;;;6.90;3.17;;;;;;;17.84;100.00;99912.88;5047255;28;20037;-75
2023/07/27 06:57:24;;;;;;;4.80;2.90;;;;;;;17.91;100.00;99918.69;5057084;28;20120;-75
2023/07/27 07:00:11;;;;;;;6.70;3.03;;;;;;;17.95;100.00;99919.63;5042066;28;20382;-75
2023/07/27 07:02:57;;;;;;;6.88;3.15;;;;;;;17.99;100.00;99919.72;5043060;28;20040;-75
2023/07/27 07:05:42;;;;;;;6.45;3.17;;;;;;;18.03;100.00;99921.47;5046430;28;20041;-75
2023/07/27 07:08:29;;;;;;;6.63;3.38;;;;;;;18.06;100.00;99926.38;5021873;28;20091;-75
2023/07/27 07:11:15;;;;;;;6.70;3.22;;;;;;;18.12;100.00;99923.31;5049370;28;20512;-75
2023/07/27 07:14:00;;;;;;;5.53;3.00;;;;;;;18.16;100.00;99918.56;5048984;28;20508;-75
2023/07/27 07:16:46;;;;;;;7.75;3.53;;;;;;;18.20;100.00;99925.13;5071970;28;20032;-75
2023/07/27 07:19:32;;;;;;;6.50;3.55;;;;;;;18.25;100.00;99914.44;5085068;28;20032;-75
2023/07/27 07:22:18;;;;;;;6.50;3.85;;;;;;;18.30;100.00;99916.16;5081048;28;20031;-75
2023/07/27 07:25:04;;;;;;;5.90;3.72;;;;;;;18.34;100.00;99919.06;5095167;28;20032;-75
2023/07/27 07:27:50;;;;;;;6.95;3.75;;;;;;;18.38;100.00;99908.72;5107649;28;20111;-75
2023/07/27 07:30:38;;;;;;;5.03;3.53;;;;;;;18.43;100.00;99912.09;5097272;28;20044;-78
2023/07/27 07:33:24;;;;;;;5.97;3.83;;;;;;;18.46;100.00;99914.19;5071327;28;20142;-75
2023/07/27 07:36:10;;;;;;;7.97;3.80;;;;;;;18.50;100.00;99905.84;5069948;28;20114;-75
2023/07/27 07:38:56;;;;;;;8.18;4.32;;;;;;;18.54;100.00;99906.75;5078130;28;20085;-75
2023/07/27 07:41:42;;;;;;;7.57;4.18;;;;;;;18.56;100.00;99901.59;5068872;28;20447;-76
2023/07/27 07:44:27;;;;;;;9.30;4.45;;;;;;;18.59;100.00;99897.25;5061259;28;20039;-76
2023/07/27 07:47:13;;;;;;;9.50;4.20;;;;;;;18.61;100.00;99901.31;5037920;28;20121;-76
2023/07/27 07:49:59;;;;;;;6.03;3.92;;;;;;;18.64;100.00;99894.16;5079571;28;20095;-75
2023/07/27 07:52:45;;;;;;;9.30;4.28;;;;;;;18.63;100.00;99892.50;5051490;28;20036;-76
2023/07/27 07:55:34;;;;;;;9.32;4.68;;;;;;;18.64;100.00;99899.78;5055890;28;20036;-75
2023/07/27 07:58:20;;;;;;;8.18;4.28;;;;;;;18.67;100.00;99896.25;5064251;28;20036;-76
2023/07/27 08:01:06;;;;;;;8.40;4.10;;;;;;;18.68;100.00;99897.84;5092697;28;20028;-75
2023/07/27 08:03:52;;;;;;;8.20;4.20;;;;;;;18.69;100.00;99896.66;5073668;28;20040;-75
2023/07/27 08:06:38;;;;;;;9.45;4.45;;;;;;;18.72;100.00;99896.78;5038500;28;20086;-75
2023/07/27 08:09:24;;;;;;;8.88;5.18;;;;;;;18.78;100.00;99891.72;5095821;28;20047;-75
2023/07/27 08:12:10;;;;;;;9.15;5.13;;;;;;;18.85;100.00;99889.06;5085364;28;20185;-75
2023/07/27 08:14:55;;;;;;;12.23;4.53;;;;;;;18.92;100.00;99889.25;5084483;28;20032;-75
2023/07/27 08:17:41;;;;;;;7.78;4.55;;;;;;;19.01;100.00;99888.25;5071932;28;20043;-75
2023/07/27 08:20:27;;;;;;;11.75;4.72;;;;;;;19.11;100.00;99891.31;5092431;28;20039;-75
2023/07/27 08:23:13;;;;;;;12.95;5.13;;;;;;;19.21;100.00;99895.53;5083299;28;20415;-75
2023/07/27 08:25:59;;;;;;;9.43;4.90;;;;;;;19.29;100.00;99891.69;5084142;28;20028;-75
2023/07/27 08:28:46;;;;;;;8.98;4.68;;;;;;;19.38;100.00;99892.28;5069884;28;20036;-75
2023/07/27 08:31:31;;;;;;;10.93;4.80;;;;;;;19.46;100.00;99884.81;5065208;28;20027;-75
2023/07/27 08:34:17;;;;;;;13.93;5.43;;;;;;;19.52;100.00;99882.53;5051244;28;20488;-75
2023/07/27 08:37:03;;;;;;;12.68;5.18;;;;;;;19.59;100.00;99885.50;5059593;28;20043;-76
2023/07/27 08:39:49;;;;;;;9.48;5.40;;;;;;;19.61;100.00;99869.88;5078667;28;20040;-75
2023/07/27 08:42:35;;;;;;;11.07;5.45;;;;;;;19.66;100.00;99873.59;5068334;28;20443;-76
2023/07/27 08:45:21;;;;;;;13.35;5.53;;;;;;;19.69;100.00;99875.66;5060746;28;20034;-76
2023/07/27 08:48:07;;;;;;;10.02;5.57;;;;;;;19.73;100.00;99876.56;5058161;28;20110;-76
2023/07/27 08:50:53;;;;;;;8.93;5.18;;;;;;;19.69;100.00;99881.31;5060752;28;20039;-76
2023/07/27 08:53:39;;;;;;;9.27;4.90;;;;;;;19.72;100.00;99880.56;5063721;28;20118;-76
2023/07/27 08:56:25;;;;;;;10.68;5.63;;;;;;;19.69;100.00;99873.66;5059796;28;21955;-76
2023/07/27 08:59:11;;;;;;;8.32;5.13;;;;;;;19.68;100.00;99879.69;5070625;28;20032;-76
2023/07/27 09:01:57;;;;;;;12.63;5.90;;;;;;;19.62;100.00;99882.75;5053326;28;20046;-76
2023/07/27 09:04:43;;;;;;;9.50;5.40;;;;;;;19.60;100.00;99887.94;5060910;28;20038;-76
2023/07/27 09:07:28;;;;;;;8.48;5.28;;;;;;;19.59;100.00;99893.97;5056465;28;20047;-76
2023/07/27 09:10:14;;;;;;;13.02;6.03;;;;;;;19.54;100.00;99891.44;5073197;28;20060;-76
2023/07/27 09:13:00;;;;;;;10.40;5.50;;;;;;;19.48;100.00;99890.91;5049650;28;20048;-76
2023/07/27 09:15:46;;;;;;;11.00;5.70;;;;;;;19.43;100.00;99889.19;5078797;28;20047;-76
2023/07/27 09:18:38;;;;;;;10.68;5.95;;;;;;;19.42;100.00;99878.31;5083662;28;20032;-76
2023/07/27 09:21:24;;;;;;;7.88;5.57;;;;;;;19.38;100.00;99878.22;5063788;28;20070;-76
2023/07/27 09:24:14;;;;;;;10.23;6.10;;;;;;;19.36;100.00;99872.16;5058415;28;20043;-76
2023/07/27 09:27:01;;;;;;;9.05;5.20;;;;;;;19.36;100.00;99874.13;5056970;28;20087;-76
2023/07/27 09:29:47;;;;;;;10.25;5.47;;;;;;;19.32;100.00;99871.25;5083315;28;20422;-77
2023/07/27 09:32:36;;;;;;;9.52;5.82;;;;;;;19.29;100.00;99871.19;5062507;28;20036;-76
2023/07/27 09:35:22;;;;;;;11.30;6.22;;;;;;;19.26;100.00;99869.91;5071215;28;20496;-76
2023/07/27 09:38:08;;;;;;;9.23;6.10;;;;;;;19.27;100.00;99870.72;5091314;28;20039;-76
2023/07/27 09:40:53;;;;;;;10.23;5.78;;;;;;;19.26;100.00;99875.56;5065112;28;20089;-76
2023/07/27 09:43:39;;;;;;;10.35;5.55;;;;;;;19.25;100.00;99865.47;5074251;28;20439;-76
2023/07/27 09:46:25;;;;;;;10.15;5.78;;;;;;;19.23;100.00;99858.59;5089331;28;20032;-76
2023/07/27 09:49:12;;;;;;;12.63;6.13;;;;;;;19.24;100.00;99861.00;5071843;28;20036;-76
2023/07/27 09:51:57;;;;;;;9.70;5.72;;;;;;;19.23;100.00;99861.41;5059643;28;20038;-76
2023/07/27 09:54:45;;;;;;;10.23;5.80;;;;;;;19.24;100.00;99869.47;5058119;28;20067;-76
2023/07/27 09:57:31;;;;;;;13.18;5.55;;;;;;;19.24;100.00;99871.47;5056427;28;20032;-76
2023/07/27 10:00:17;;;;;;;11.63;6.18;;;;;;;19.27;100.00;99868.72;5049164;28;20119;-76
2023/07/27 10:03:03;;;;;;;13.13;5.88;;;;;;;19.29;100.00;99874.00;5057127;28;20038;-76
2023/07/27 10:05:48;;;;;;;9.35;5.65;;;;;;;19.32;100.00;99870.44;5069812;28;20119;-76
2023/07/27 10:08:34;;;;;;;10.52;5.38;;;;;;;19.37;100.00;99859.72;5058980;28;20500;-76
2023/07/27 10:11:52;;;;;;;11.73;6.15;;;;;;;19.43;100.00;99869.47;5067724;28;20036;-76
2023/07/27 10:14:38;;;;;;;11.07;5.82;;;;;;;19.52;100.00;99866.44;5088618;28;20491;-76
2023/07/27 10:17:27;;;;;;;11.30;5.88;;;;;;;19.60;100.00;99856.16;5044976;28;20040;-76
2023/07/27 10:20:26;;;;;;;10.18;6.00;;;;;;;19.66;100.00;99860.31;5079306;28;20075;-76
2023/07/27 10:23:17;;;;;;;9.82;5.85;;;;;;;19.72;100.00;99866.47;5055359;28;20063;-76
2023/07/27 10:26:02;;;;;;;13.15;6.03;;;;;;;19.80;100.00;99869.06;5068661;28;20082;-76
2023/07/27 10:28:49;;;;;;;12.52;6.25;;;;;;;19.87;100.00;99865.59;5096312;28;20088;-76
2023/07/27 10:31:34;;;;;;;14.95;6.40;;;;;;;19.92;100.00;99867.25;5075926;28;20067;-76
2023/07/27 10:34:21;;;;;;;10.27;5.55;;;;;;;19.96;100.00;99863.34;5066720;28;20036;-76
2023/07/27 10:37:11;;;;;;;12.38;5.47;;;;;;;19.99;100.00;99862.59;5069830;28;20043;-76
2023/07/27 10:39:56;;;;;;;13.43;6.10;;;;;;;20.03;100.00;99859.84;5071031;28;20040;-76
2023/07/27 10:42:43;;;;;;;10.40;5.55;;;;;;;20.05;100.00;99858.28;5075247;28;20032;-76
2023/07/27 10:45:28;;;;;;;10.85;5.25;;;;;;;20.07;100.00;99852.28;5073331;28;20093;-76
2023/07/27 10:48:16;;;;;;;9.32;5.53;;;;;;;20.12;100.00;99860.44;5067804;28;20024;-76
2023/07/27 10:51:02;;;;;;;12.07;5.28;;;;;;;20.18;100.00;99858.91;5069534;28;20115;-76
2023/07/27 10:53:48;;;;;;;9.90;5.38;;;;;;;20.23;100.00;99855.00;5056117;28;20488;-75
2023/07/27 10:56:34;;;;;;;10.23;5.32;;;;;;;20.27;100.00;99853.03;5079974;28;20044;-76
2023/07/27 10:59:20;;;;;;;10.25;5.60;;;;;;;20.32;100.00;99852.72;5066788;28;20177;-76
2023/07/27 11:02:18;;;;;;;9.73;5.20;;;;;;;20.38;100.00;99864.50;5078856;28;20115;-76
2023/07/27 11:05:07;;;;;;;9.90;5.25;;;;;;;20.42;100.00;99862.53;5065011;28;20032;-76
2023/07/27 11:07:52;;;;;;;11.30;5.30;;;;;;;20.42;100.00;99854.94;5057255;28;20047;-76
2023/07/27 11:10:38;;;;;;;11.90;5.50;;;;;;;20.44;100.00;99863.00;5053929;28;20101;-76
2023/07/27 11:13:25;;;;;;;6.93;5.45;;;;;;;20.43;100.00;99869.84;5062076;28;20513;-76
2023/07/27 11:16:12;;;;;;;11.10;5.13;;;;;;;20.40;100.00;99871.41;5090435;28;20065;-76
2023/07/27 11:19:00;;;;;;;11.27;5.38;;;;;;;20.40;100.00;99871.41;5073299;28;20039;-76
2023/07/27 11:21:47;;;;;;;11.07;5.68;;;;;;;20.38;100.00;99872.97;5078381;28;20031;-76
2023/07/27 11:24:32;;;;;;;11.98;6.28;;;;;;;20.36;100.00;99861.25;5072639;28;20031;-76
2023/07/27 11:27:18;;;;;;;8.80;4.80;;;;;;;20.31;100.00;99866.00;5055337;28;20032;-76
2023/07/27 11:30:09;;;;;;;9.07;4.95;;;;;;;20.28;100.00;99858.31;5057014;28;20119;-76
2023/07/27 11:33:03;;;;;;;10.88;5.53;;;;;;;20.25;100.00;99867.53;5083518;28;20036;-76
2023/07/27 11:35:49;;;;;;;9.30;5.35;;;;;;;20.23;100.00;99864.25;5074301;28;20071;-76
2023/07/27 11:38:36;;;;;;;9.85;5.95;;;;;;;20.14;100.00;99863.66;5056221;28;20480;-76
2023/07/27 11:41:22;;;;;;;9.48;5.15;;;;;;;20.08;100.00;99859.53;5056817;28;20032;-76
2023/07/27 11:44:08;;;;;;;12.48;5.40;;;;;;;20.05;100.00;99869.53;5049336;28;20036;-76
2023/07/27 11:46:55;;;;;;;13.82;5.35;;;;;;;20.03;100.00;99862.66;5072087;28;20100;-76
2023/07/27 11:49:41;;;;;;;11.60;5.60;;;;;;;20.01;100.00;99876.31;5090511;28;20032;-76
2023/07/27 11:52:27;;;;;;;10.57;5.20;;;;;;;19.99;100.00;99884.31;5085401;28;20070;-76
2023/07/27 11:55:16;;;;;;;11.80;5.55;;;;;;;19.97;100.00;99881.88;5076578;28;20410;-76
2023/07/27 11:58:08;;;;;;;14.00;5.40;;;;;;;19.93;100.00;99886.63;5068960;28;20037;-77
2023/07/27 12:00:54;;;;;;;11.88;5.43;;;;;;;19.86;100.00;99881.69;5060033;28;20067;-77
2023/07/27 12:03:40;;;;;;;10.60;4.88;;;;;;;19.85;100.00;99877.22;5055649;28;20476;-76
2023/07/27 12:06:26;;;;;;;8.68;4.65;;;;;;;19.84;100.00;99880.41;5078721;28;20043;-76
2023/07/27 12:09:12;;;;;;;10.60;5.45;;;;;;;19.84;100.00;99878.41;5071692;28;20091;-76
2023/07/27 12:12:00;;;;;;;9.63;5.25;;;;;;;19.84;100.00;99880.41;5080417;28;20032;-76
2023/07/27 12:14:46;;;;;;;11.15;4.95;;;;;;;19.86;100.00;99873.22;5038547;28;20485;-76
2023/07/27 12:17:32;;;;;;;10.95;5.50;;;;;;;19.90;100.00;99869.66;5060671;28;20037;-76
2023/07/27 12:20:17;;;;;;;10.13;5.10;;;;;;;19.99;100.00;99873.88;5074088;28;20055;-76
2023/07/27 12:23:03;;;;;;;9.65;5.28;;;;;;;20.11;100.00;99861.59;5065049;28;20039;-76
2023/07/27 12:25:50;;;;;;;11.98;5.40;;;;;;;20.24;100.00;99863.06;5083060;28;20166;-76
2023/07/27 12:28:35;;;;;;;9.65;4.75;;;;;;;20.37;100.00;99860.88;5084574;28;20032;-76
2023/07/27 12:31:21;;;;;;;10.45;5.20;;;;;;;20.50;100.00;99865.13;5067965;28;20060;-76
2023/07/27 12:34:07;;;;;;;11.43;4.80;;;;;;;20.62;100.00;99852.88;5070603;28;20036;-73
2023/07/27 12:36:53;;;;;;;9.77;4.93;;;;;;;20.72;100.00;99849.38;5070828;28;20036;-74
2023/07/27 12:39:39;;;;;;;12.93;4.80;;;;;;;20.84;100.00;99845.56;5081845;28;20039;-75
2023/07/27 12:42:25;;;;;;;7.18;4.05;;;;;;;20.97;100.00;99848.97;5077577;28;20035;-75
2023/07/27 12:45:10;;;;;;;9.43;4.05;;;;;;;21.08;100.00;99847.09;5058385;28;20032;-75
2023/07/27 12:47:56;;;;;;;7.03;4.20;;;;;;;21.17;100.00;99844.84;5090579;28;20036;-74
2023/07/27 12:50:42;;;;;;;9.68;3.50;;;;;;;21.24;100.00;99854.59;5054588;28;20481;-75
2023/07/27 12:53:28;;;;;;;7.75;3.55;;;;;;;21.28;100.00;99841.31;5094601;28;20486;-74